createdAt,value
2022-07-26T00:00:00.086Z,99759.94
2022-07-26T00:01:01.739Z,99767.91
2022-07-26T00:02:03.849Z,99761.34
2022-07-26T00:03:05.616Z,99767.22
2022-07-26T00:04:07.833Z,99771.34
2022-07-26T00:05:09.717Z,99779.47
2022-07-26T00:06:11.295Z,99776.97
2022-07-26T00:07:12.930Z,99761.41
2022-07-26T00:08:14.542Z,99768.28
2022-07-26T00:09:16.205Z,99766.94
2022-07-26T00:10:17.804Z,99766.53
2022-07-26T00:11:20.175Z,99775.22
2022-07-26T00:12:21.725Z,99767.88
2022-07-26T00:13:23.346Z,99776.25
2022-07-26T00:14:25.063Z,99773.50
2022-07-26T00:15:27.381Z,99779.94
2022-07-26T00:16:29.919Z,99777.03
2022-07-26T00:17:31.528Z,99774.28
2022-07-26T00:18:33.345Z,99771.88
2022-07-26T00:19:35.111Z,99767.66
2022-07-26T00:20:36.757Z,99764.53
2022-07-26T00:21:40.699Z,99766.13
2022-07-26T00:22:42.574Z,99776.84
2022-07-26T00:23:44.225Z,99766.38
2022-07-26T00:24:45.825Z,99778.69
2022-07-26T00:25:47.644Z,99761.28
2022-07-26T00:26:49.365Z,99770.00
2022-07-26T00:27:51.083Z,99772.75
2022-07-26T00:28:52.662Z,99772.16
2022-07-26T00:29:54.245Z,99766.97
2022-07-26T00:30:55.841Z,99770.59
2022-07-26T00:31:57.561Z,99773.47
2022-07-26T00:32:59.284Z,99777.34
2022-07-26T00:34:00.861Z,99771.91
2022-07-26T00:35:02.521Z,99772.03
2022-07-26T00:36:04.308Z,99779.25
2022-07-26T00:37:05.914Z,99778.28
2022-07-26T00:38:07.909Z,99779.34
2022-07-26T00:39:11.025Z,99774.03
2022-07-26T00:40:13.617Z,99772.75
2022-07-26T00:41:15.230Z,99779.47
2022-07-26T00:42:17.277Z,99778.53
2022-07-26T00:43:18.837Z,99776.59
2022-07-26T00:44:20.764Z,99773.97
2022-07-26T00:45:23.138Z,99767.34
2022-07-26T00:46:24.803Z,99774.19
2022-07-26T00:47:26.570Z,99774.56
2022-07-26T00:48:28.280Z,99778.31
2022-07-26T00:49:29.949Z,99763.00
2022-07-26T00:50:31.568Z,99780.59
2022-07-26T00:51:33.341Z,99796.25
2022-07-26T00:52:35.079Z,99779.13
2022-07-26T00:53:36.650Z,99785.63
2022-07-26T00:54:39.605Z,99784.53
2022-07-26T00:55:41.485Z,99784.53
2022-07-26T00:56:43.080Z,99782.34
2022-07-26T00:57:45.265Z,99782.09
2022-07-26T00:58:46.882Z,99794.16
2022-07-26T00:59:49.344Z,99785.25
2022-07-26T01:00:51.082Z,99793.91
2022-07-26T01:01:53.311Z,99791.25
2022-07-26T01:02:56.670Z,99790.28
2022-07-26T01:03:58.318Z,99803.22
2022-07-26T01:05:00.082Z,99799.19
2022-07-26T01:06:01.924Z,99802.19
2022-07-26T01:07:15.497Z,99790.22
2022-07-26T01:08:17.488Z,99799.53
2022-07-26T01:09:19.830Z,99804.44
2022-07-26T01:10:21.370Z,99805.78
2022-07-26T01:11:23.008Z,99803.34
2022-07-26T01:12:24.669Z,99798.84
2022-07-26T01:13:26.413Z,99799.38
2022-07-26T01:14:28.393Z,99799.69
2022-07-26T01:15:30.173Z,99793.53
2022-07-26T01:16:31.879Z,99798.84
2022-07-26T01:17:34.360Z,99800.31
2022-07-26T01:18:40.126Z,99793.50
2022-07-26T01:19:42.370Z,99784.78
2022-07-26T01:20:44.812Z,99795.41
2022-07-26T01:21:46.602Z,99787.28
2022-07-26T01:22:48.705Z,99791.09
2022-07-26T01:23:50.376Z,99800.75
2022-07-26T01:24:52.045Z,99791.03
2022-07-26T01:25:53.637Z,99795.25
2022-07-26T01:26:57.801Z,99802.38
2022-07-26T01:27:59.464Z,99802.38
2022-07-26T01:29:01.118Z,99793.16
2022-07-26T01:30:02.777Z,99799.94
2022-07-26T01:31:08.268Z,99795.56
2022-07-26T01:32:10.061Z,99791.50
2022-07-26T01:33:11.944Z,99798.22
2022-07-26T01:34:13.687Z,99793.16
2022-07-26T01:35:15.264Z,99796.66
2022-07-26T01:36:17.171Z,99793.69
2022-07-26T01:37:18.753Z,99763.59
2022-07-26T01:38:20.376Z,99763.59
2022-07-26T01:39:22.311Z,99796.34
2022-07-26T01:40:23.898Z,99801.81
2022-07-26T01:41:30.996Z,99806.50
2022-07-26T01:42:41.146Z,99796.75
2022-07-26T01:43:43.254Z,99753.50
2022-07-26T01:44:44.887Z,99787.91
2022-07-26T01:45:46.603Z,99791.41
2022-07-26T01:46:48.386Z,99784.69
2022-07-26T01:47:50.331Z,99798.28
2022-07-26T01:48:52.181Z,99796.22
2022-07-26T01:49:53.879Z,99802.50
2022-07-26T01:50:55.498Z,99803.63
2022-07-26T01:51:57.053Z,99806.28
2022-07-26T01:52:58.654Z,99805.41
2022-07-26T01:54:01.683Z,99809.16
2022-07-26T01:55:03.769Z,99812.09
2022-07-26T01:56:05.781Z,99796.94
2022-07-26T01:57:07.460Z,99807.19
2022-07-26T01:58:09.073Z,99808.28
2022-07-26T01:59:10.684Z,99802.97
2022-07-26T02:00:12.758Z,99804.91
2022-07-26T02:01:14.386Z,99816.53
2022-07-26T02:02:16.329Z,99806.88
2022-07-26T02:03:18.068Z,99808.66
2022-07-26T02:04:38.202Z,99811.94
2022-07-26T02:05:39.883Z,99796.75
2022-07-26T02:06:41.796Z,99802.41
2022-07-26T02:07:46.067Z,99802.97
2022-07-26T02:08:47.611Z,99807.19
2022-07-26T02:09:49.234Z,99799.38
2022-07-26T02:11:03.336Z,99804.53
2022-07-26T02:12:05.576Z,99807.09
2022-07-26T02:13:07.205Z,99790.94
2022-07-26T02:14:09.901Z,99803.34
2022-07-26T02:15:14.069Z,99814.53
2022-07-26T02:16:15.756Z,99814.34
2022-07-26T02:17:18.056Z,99799.28
2022-07-26T02:18:19.702Z,99816.53
2022-07-26T02:19:21.317Z,99813.59
2022-07-26T02:20:22.851Z,99818.34
2022-07-26T02:21:24.397Z,99823.03
2022-07-26T02:22:26.094Z,99823.41
2022-07-26T02:23:29.284Z,99777.03
2022-07-26T02:24:31.131Z,99807.78
2022-07-26T02:25:32.996Z,99823.31
2022-07-26T02:26:34.689Z,99824.19
2022-07-26T02:27:36.224Z,99826.97
2022-07-26T02:28:37.904Z,99821.19
2022-07-26T02:29:39.771Z,99831.94
2022-07-26T02:30:42.164Z,99809.16
2022-07-26T02:31:48.572Z,99799.16
2022-07-26T02:32:50.932Z,99822.63
2022-07-26T02:33:52.548Z,99819.97
2022-07-26T02:34:54.094Z,99819.50
2022-07-26T02:35:55.817Z,99823.72
2022-07-26T02:36:58.060Z,99820.34
2022-07-26T02:38:10.366Z,99820.50
2022-07-26T02:39:13.251Z,99810.47
2022-07-26T02:40:19.000Z,99816.38
2022-07-26T02:41:21.425Z,99817.50
2022-07-26T02:42:22.960Z,99816.63
2022-07-26T02:43:24.522Z,99819.38
2022-07-26T02:44:27.258Z,99820.38
2022-07-26T02:45:28.961Z,99812.78
2022-07-26T02:46:32.913Z,99816.38
2022-07-26T02:47:34.572Z,99810.38
2022-07-26T02:48:36.264Z,99823.03
2022-07-26T02:49:37.880Z,99822.31
2022-07-26T02:50:39.448Z,99816.41
2022-07-26T02:51:41.162Z,99812.53
2022-07-26T02:52:42.695Z,99816.03
2022-07-26T02:53:44.223Z,99809.50
2022-07-26T02:54:45.781Z,99819.75
2022-07-26T02:55:47.545Z,99810.84
2022-07-26T02:56:49.135Z,99818.56
2022-07-26T02:57:50.898Z,99808.78
2022-07-26T02:58:52.762Z,99816.63
2022-07-26T02:59:54.320Z,99814.09
2022-07-26T03:00:55.953Z,99807.47
2022-07-26T03:01:58.531Z,99818.31
2022-07-26T03:03:00.938Z,99813.72
2022-07-26T03:04:03.099Z,99800.09
2022-07-26T03:05:06.360Z,99815.19
2022-07-26T03:06:08.765Z,99812.53
2022-07-26T03:07:10.494Z,99812.03
2022-07-26T03:08:12.127Z,99818.19
2022-07-26T03:09:14.776Z,99809.22
2022-07-26T03:10:16.555Z,99812.88
2022-07-26T03:11:18.120Z,99807.19
2022-07-26T03:12:19.783Z,99805.25
2022-07-26T03:13:21.350Z,99811.41
2022-07-26T03:14:22.903Z,99806.47
2022-07-26T03:15:24.528Z,99809.13
2022-07-26T03:16:29.611Z,99808.50
2022-07-26T03:17:32.116Z,99809.59
2022-07-26T03:18:36.900Z,99820.59
2022-07-26T03:19:38.503Z,99808.69
2022-07-26T03:20:40.365Z,99800.81
2022-07-26T03:21:41.909Z,99797.72
2022-07-26T03:22:43.827Z,99803.38
2022-07-26T03:23:45.622Z,99805.28
2022-07-26T03:24:47.417Z,99810.88
2022-07-26T03:25:49.111Z,99798.91
2022-07-26T03:26:50.740Z,99804.59
2022-07-26T03:27:57.012Z,99804.59
2022-07-26T03:28:59.737Z,99780.22
2022-07-26T03:30:01.400Z,99828.81
2022-07-26T03:31:03.530Z,99816.66
2022-07-26T03:32:05.461Z,99814.13
2022-07-26T03:33:07.836Z,99815.44
2022-07-26T03:34:09.720Z,99821.47
2022-07-26T03:35:11.577Z,99817.00
2022-07-26T03:36:15.675Z,99814.34
2022-07-26T03:37:18.572Z,99822.44
2022-07-26T03:38:20.215Z,99824.97
2022-07-26T03:39:21.760Z,99816.03
2022-07-26T03:40:23.432Z,99823.06
2022-07-26T03:41:25.601Z,99821.94
2022-07-26T03:42:27.231Z,99814.97
2022-07-26T03:43:28.780Z,99829.19
2022-07-26T03:44:32.075Z,99819.91
2022-07-26T03:45:33.751Z,99821.47
2022-07-26T03:46:35.407Z,99824.38
2022-07-26T03:47:37.391Z,99822.06
2022-07-26T03:48:39.110Z,99820.63
2022-07-26T03:49:40.676Z,99785.50
2022-07-26T03:50:43.170Z,99821.47
2022-07-26T03:51:44.903Z,99823.88
2022-07-26T03:52:46.647Z,99832.06
2022-07-26T03:53:48.337Z,99828.59
2022-07-26T03:54:49.987Z,99824.22
2022-07-26T03:56:10.383Z,99824.44
2022-07-26T03:57:11.985Z,99815.03
2022-07-26T03:58:13.916Z,99827.09
2022-07-26T03:59:15.717Z,99827.94
2022-07-26T04:00:17.517Z,99832.41
2022-07-26T04:01:19.179Z,99831.69
2022-07-26T04:02:20.806Z,99830.09
2022-07-26T04:03:22.717Z,99837.34
2022-07-26T04:04:25.213Z,99798.00
2022-07-26T04:05:28.187Z,99826.38
2022-07-26T04:06:32.992Z,99837.19
2022-07-26T04:07:34.834Z,99841.69
2022-07-26T04:08:36.956Z,99832.50
2022-07-26T04:09:38.494Z,99824.28
2022-07-26T04:10:40.106Z,99834.88
2022-07-26T04:11:42.810Z,99840.09
2022-07-26T04:12:44.524Z,99839.25
2022-07-26T04:13:46.470Z,99811.09
2022-07-26T04:14:48.281Z,99840.81
2022-07-26T04:15:50.922Z,99840.81
2022-07-26T04:16:52.600Z,99839.75
2022-07-26T04:17:54.247Z,99842.25
2022-07-26T04:18:55.889Z,99847.44
2022-07-26T04:19:58.321Z,99843.94
2022-07-26T04:21:00.142Z,99848.41
2022-07-26T04:22:01.704Z,99842.25
2022-07-26T04:23:03.337Z,99804.50
2022-07-26T04:24:05.578Z,99853.72
2022-07-26T04:25:08.784Z,99850.09
2022-07-26T04:26:10.567Z,99842.03
2022-07-26T04:27:12.229Z,99848.66
2022-07-26T04:28:14.232Z,99854.69
2022-07-26T04:29:15.852Z,99850.94
2022-07-26T04:30:18.086Z,99854.47
2022-07-26T04:31:19.799Z,99848.19
2022-07-26T04:32:21.436Z,99850.94
2022-07-26T04:33:23.470Z,99827.06
2022-07-26T04:34:25.143Z,99849.38
2022-07-26T04:35:26.764Z,99853.72
2022-07-26T04:36:28.361Z,99853.59
2022-07-26T04:37:32.821Z,99853.72
2022-07-26T04:38:34.340Z,99854.31
2022-07-26T04:39:36.521Z,99854.81
2022-07-26T04:40:40.443Z,99858.91
2022-07-26T04:41:42.674Z,99862.22
2022-07-26T04:42:44.427Z,99861.16
2022-07-26T04:43:45.966Z,99866.81
2022-07-26T04:44:47.624Z,99869.97
2022-07-26T04:45:49.329Z,99861.63
2022-07-26T04:46:50.888Z,99868.97
2022-07-26T04:47:52.571Z,99869.34
2022-07-26T04:48:54.230Z,99876.97
2022-07-26T04:49:56.367Z,99867.28
2022-07-26T04:50:58.120Z,99880.44
2022-07-26T04:51:59.745Z,99873.69
2022-07-26T04:53:01.383Z,99874.75
2022-07-26T04:54:02.955Z,99872.59
2022-07-26T04:55:06.182Z,99873.66
2022-07-26T04:56:07.995Z,99877.72
2022-07-26T04:57:09.608Z,99870.63
2022-07-26T04:58:11.398Z,99870.13
2022-07-26T04:59:14.653Z,99865.53
2022-07-26T05:00:24.270Z,99881.97
2022-07-26T05:01:26.195Z,99878.09
2022-07-26T05:02:28.037Z,99888.94
2022-07-26T05:03:29.719Z,99879.03
2022-07-26T05:04:31.294Z,99882.16
2022-07-26T05:05:33.714Z,99876.22
2022-07-26T05:06:35.683Z,99872.72
2022-07-26T05:07:46.647Z,99881.25
2022-07-26T05:08:48.730Z,99858.72
2022-07-26T05:09:50.451Z,99870.72
2022-07-26T05:10:55.423Z,99880.84
2022-07-26T05:11:57.695Z,99877.53
2022-07-26T05:12:59.556Z,99883.69
2022-07-26T05:14:01.121Z,99885.13
2022-07-26T05:15:04.484Z,99880.78
2022-07-26T05:16:11.975Z,99888.00
2022-07-26T05:17:13.933Z,99893.47
2022-07-26T05:18:19.521Z,99885.19
2022-07-26T05:19:25.120Z,99889.91
2022-07-26T05:20:27.411Z,99894.84
2022-07-26T05:21:29.016Z,99897.13
2022-07-26T05:22:30.570Z,99896.59
2022-07-26T05:23:32.242Z,99886.78
2022-07-26T05:24:33.960Z,99890.16
2022-07-26T05:25:35.914Z,99887.91
2022-07-26T05:26:37.588Z,99888.75
2022-07-26T05:27:41.344Z,99898.28
2022-07-26T05:28:42.931Z,99891.72
2022-07-26T05:29:44.578Z,99898.84
2022-07-26T05:30:46.970Z,99897.75
2022-07-26T05:31:48.575Z,99902.81
2022-07-26T05:32:50.168Z,99904.38
2022-07-26T05:33:51.773Z,99905.66
2022-07-26T05:34:55.989Z,99904.69
2022-07-26T05:35:57.769Z,99902.19
2022-07-26T05:36:59.303Z,99897.50
2022-07-26T05:38:01.011Z,99902.50
2022-07-26T05:39:03.470Z,99908.78
2022-07-26T05:40:06.049Z,99916.06
2022-07-26T05:41:08.012Z,99911.38
2022-07-26T05:42:09.587Z,99920.41
2022-07-26T05:43:11.149Z,99914.81
2022-07-26T05:44:12.796Z,99918.53
2022-07-26T05:45:14.989Z,99908.00
2022-07-26T05:46:16.651Z,99911.88
2022-07-26T05:47:18.904Z,99916.97
2022-07-26T05:48:20.506Z,99906.63
2022-07-26T05:49:22.263Z,99916.16
2022-07-26T05:50:23.875Z,99909.16
2022-07-26T05:51:25.415Z,99910.69
2022-07-26T05:52:27.126Z,99908.56
2022-07-26T05:53:28.670Z,99912.34
2022-07-26T05:54:30.227Z,99917.53
2022-07-26T05:55:31.789Z,99914.59
2022-07-26T05:56:33.404Z,99914.47
2022-07-26T05:57:35.223Z,99911.56
2022-07-26T05:58:37.140Z,99903.25
2022-07-26T05:59:38.846Z,99918.22
2022-07-26T06:00:42.281Z,99906.66
2022-07-26T06:01:45.845Z,99914.88
2022-07-26T06:02:47.613Z,99914.31
2022-07-26T06:03:49.706Z,99911.25
2022-07-26T06:04:51.459Z,99905.41
2022-07-26T06:05:56.632Z,99906.16
2022-07-26T06:06:58.283Z,99910.59
2022-07-26T06:07:59.960Z,99911.34
2022-07-26T06:09:01.702Z,99912.44
2022-07-26T06:10:04.370Z,99913.03
2022-07-26T06:11:06.299Z,99918.66
2022-07-26T06:12:08.055Z,99913.47
2022-07-26T06:13:09.675Z,99910.28
2022-07-26T06:14:11.676Z,99919.03
2022-07-26T06:15:14.808Z,99916.97
2022-07-26T06:16:17.661Z,99920.16
2022-07-26T06:17:19.317Z,99911.72
2022-07-26T06:18:21.077Z,99920.81
2022-07-26T06:19:22.737Z,99918.00
2022-07-26T06:20:24.553Z,99915.88
2022-07-26T06:21:26.263Z,99920.09
2022-07-26T06:22:27.847Z,99920.97
2022-07-26T06:23:33.723Z,99904.72
2022-07-26T06:24:36.728Z,99925.66
2022-07-26T06:25:39.340Z,99922.16
2022-07-26T06:26:40.990Z,99923.59
2022-07-26T06:27:42.663Z,99915.28
2022-07-26T06:28:44.282Z,99917.84
2022-07-26T06:29:48.439Z,99909.81
2022-07-26T06:30:50.329Z,99911.44
2022-07-26T06:31:52.324Z,99924.59
2022-07-26T06:32:53.858Z,99927.25
2022-07-26T06:33:55.475Z,99916.16
2022-07-26T06:34:57.050Z,99925.41
2022-07-26T06:35:58.714Z,99923.06
2022-07-26T06:37:00.386Z,99926.25
2022-07-26T06:38:02.711Z,99932.81
2022-07-26T06:39:04.730Z,99929.16
2022-07-26T06:40:07.997Z,99924.25
2022-07-26T06:41:09.612Z,99930.72
2022-07-26T06:42:11.295Z,99927.91
2022-07-26T06:43:13.003Z,99929.72
2022-07-26T06:44:14.792Z,99890.28
2022-07-26T06:45:16.424Z,99934.69
2022-07-26T06:46:19.346Z,99931.91
2022-07-26T06:47:21.151Z,99931.34
2022-07-26T06:48:22.744Z,99931.78
2022-07-26T06:49:24.541Z,99936.00
2022-07-26T06:50:26.344Z,99933.03
2022-07-26T06:51:27.963Z,99930.22
2022-07-26T06:52:29.714Z,99930.97
2022-07-26T06:53:31.298Z,99930.53
2022-07-26T06:54:32.904Z,99933.81
2022-07-26T06:55:34.729Z,99930.03
2022-07-26T06:56:36.312Z,99925.28
2022-07-26T06:57:44.940Z,99933.28
2022-07-26T06:58:51.717Z,99924.97
2022-07-26T06:59:53.435Z,99934.25
2022-07-26T07:00:55.243Z,99929.50
2022-07-26T07:02:00.159Z,99927.53
2022-07-26T07:03:02.221Z,99924.69
2022-07-26T07:04:03.941Z,99889.91
2022-07-26T07:05:06.296Z,99927.38
2022-07-26T07:06:08.143Z,99924.16
2022-07-26T07:07:10.236Z,99928.91
2022-07-26T07:08:14.649Z,99922.16
2022-07-26T07:09:16.646Z,99941.53
2022-07-26T07:10:19.279Z,99921.84
2022-07-26T07:11:25.457Z,99933.31
2022-07-26T07:12:27.728Z,99918.56
2022-07-26T07:13:29.295Z,99927.97
2022-07-26T07:14:30.956Z,99921.25
2022-07-26T07:15:32.848Z,99927.44
2022-07-26T07:16:34.480Z,99926.84
2022-07-26T07:17:36.178Z,99927.56
2022-07-26T07:18:37.854Z,99929.72
2022-07-26T07:19:39.458Z,99938.88
2022-07-26T07:20:41.282Z,99937.34
2022-07-26T07:21:42.816Z,99933.41
2022-07-26T07:22:44.550Z,99933.97
2022-07-26T07:23:46.124Z,99929.06
2022-07-26T07:24:48.014Z,99918.53
2022-07-26T07:25:50.632Z,99921.91
2022-07-26T07:26:52.894Z,99924.44
2022-07-26T07:27:54.608Z,99920.06
2022-07-26T07:28:56.859Z,99919.09
2022-07-26T07:29:58.545Z,99931.31
2022-07-26T07:31:00.246Z,99920.53
2022-07-26T07:32:03.368Z,99929.47
2022-07-26T07:33:05.406Z,99930.25
2022-07-26T07:34:07.918Z,99930.78
2022-07-26T07:35:12.865Z,99926.34
2022-07-26T07:36:14.780Z,99930.78
2022-07-26T07:37:17.847Z,99935.44
2022-07-26T07:38:22.530Z,99924.19
2022-07-26T07:39:27.181Z,99923.66
2022-07-26T07:40:36.386Z,99924.63
2022-07-26T07:41:39.157Z,99918.09
2022-07-26T07:42:40.729Z,99927.03
2022-07-26T07:43:42.324Z,99924.34
2022-07-26T07:44:43.941Z,99927.00
2022-07-26T07:45:48.296Z,99929.00
2022-07-26T07:46:50.555Z,99920.66
2022-07-26T07:47:52.300Z,99919.88
2022-07-26T07:48:54.048Z,99925.59
2022-07-26T07:49:55.695Z,99928.03
2022-07-26T07:50:57.286Z,99921.03
2022-07-26T07:51:58.846Z,99921.34
2022-07-26T07:53:01.994Z,99920.13
2022-07-26T07:54:05.957Z,99919.59
2022-07-26T07:55:41.410Z,99928.16
2022-07-26T07:56:30.159Z,99921.34
2022-07-26T07:57:31.855Z,99925.41
2022-07-26T07:58:33.698Z,99921.16
2022-07-26T07:59:39.158Z,99918.31
2022-07-26T08:00:41.504Z,99911.59
2022-07-26T08:01:43.188Z,99917.78
2022-07-26T08:02:47.016Z,99899.94
2022-07-26T08:03:50.154Z,99919.19
2022-07-26T08:04:54.078Z,99922.84
2022-07-26T08:05:55.710Z,99918.47
2022-07-26T08:06:57.720Z,99911.66
2022-07-26T08:07:59.456Z,99907.22
2022-07-26T08:09:01.466Z,99918.72
2022-07-26T08:10:06.445Z,99920.78
2022-07-26T08:11:08.147Z,99877.72
2022-07-26T08:12:11.059Z,99914.66
2022-07-26T08:13:13.323Z,99917.25
2022-07-26T08:14:15.089Z,99922.00
2022-07-26T08:15:19.403Z,99915.78
2022-07-26T08:16:22.827Z,99912.09
2022-07-26T08:17:24.580Z,99913.00
2022-07-26T08:18:28.460Z,99916.66
2022-07-26T08:19:41.886Z,99911.88
2022-07-26T08:20:44.107Z,99938.06
2022-07-26T08:21:46.920Z,99925.25
2022-07-26T08:22:48.686Z,99927.22
2022-07-26T08:23:50.277Z,99924.69
2022-07-26T08:24:52.399Z,99931.84
2022-07-26T08:25:58.828Z,99922.97
2022-07-26T08:27:02.513Z,99916.19
2022-07-26T08:28:04.334Z,99920.22
2022-07-26T08:29:05.924Z,99929.97
2022-07-26T08:30:10.505Z,99925.31
2022-07-26T08:31:12.192Z,99932.53
2022-07-26T08:32:13.996Z,99920.44
2022-07-26T08:33:15.585Z,99897.38
2022-07-26T08:34:18.379Z,99919.44
2022-07-26T08:35:21.359Z,99930.47
2022-07-26T08:36:23.770Z,99924.44
2022-07-26T08:37:25.384Z,99933.69
2022-07-26T08:38:26.968Z,99942.13
2022-07-26T08:39:28.626Z,99932.66
2022-07-26T08:40:30.211Z,99920.88
2022-07-26T08:41:31.871Z,99943.72
2022-07-26T08:42:33.656Z,99934.94
2022-07-26T08:43:51.103Z,99932.72
2022-07-26T08:44:54.116Z,99926.44
2022-07-26T08:46:04.660Z,99934.22
2022-07-26T08:47:06.432Z,99934.09
2022-07-26T08:48:17.351Z,99935.34
2022-07-26T08:49:20.040Z,99935.63
2022-07-26T08:50:22.663Z,99941.09
2022-07-26T08:51:26.057Z,99936.66
2022-07-26T08:52:28.355Z,99928.75
2022-07-26T08:53:30.775Z,99932.69
2022-07-26T08:54:33.461Z,99935.25
2022-07-26T08:55:57.163Z,99941.81
2022-07-26T08:56:59.156Z,99937.31
2022-07-26T08:58:04.619Z,99952.44
2022-07-26T08:59:18.992Z,99934.56
2022-07-26T09:00:30.522Z,99939.41
2022-07-26T09:01:32.288Z,99946.56
2022-07-26T09:02:43.572Z,99935.56
2022-07-26T09:03:45.888Z,99941.44
2022-07-26T09:04:47.737Z,99940.00
2022-07-26T09:05:49.484Z,99937.56
2022-07-26T09:07:11.685Z,99953.00
2022-07-26T09:08:28.845Z,99944.31
2022-07-26T09:09:35.844Z,99945.53
2022-07-26T09:10:39.295Z,99948.38
2022-07-26T09:11:41.109Z,99940.06
2022-07-26T09:12:43.806Z,99954.31
2022-07-26T09:13:53.261Z,99935.13
2022-07-26T09:14:55.940Z,99944.69
2022-07-26T09:16:10.452Z,99943.53
2022-07-26T09:17:12.153Z,99953.41
2022-07-26T09:18:28.348Z,99952.63
2022-07-26T09:19:29.940Z,99942.28
2022-07-26T09:20:32.329Z,99933.81
2022-07-26T09:21:38.881Z,99944.41
2022-07-26T09:23:07.615Z,99942.72
2022-07-26T09:24:10.144Z,99940.66
2022-07-26T09:25:23.736Z,99947.06
2022-07-26T09:26:26.631Z,99956.69
2022-07-26T09:27:36.839Z,99940.78
2022-07-26T09:28:45.027Z,99939.28
2022-07-26T09:29:46.912Z,99946.19
2022-07-26T09:30:53.630Z,99949.38
2022-07-26T09:32:15.889Z,99943.94
2022-07-26T09:33:17.512Z,99947.88
2022-07-26T09:34:26.060Z,99943.00
2022-07-26T09:35:50.746Z,99938.06
2022-07-26T09:36:52.544Z,99940.22
2022-07-26T09:37:54.222Z,99938.34
2022-07-26T09:38:59.638Z,99941.19
2022-07-26T09:40:04.543Z,99956.06
2022-07-26T09:41:18.669Z,99946.97
2022-07-26T09:42:29.482Z,99941.50
2022-07-26T09:43:37.515Z,99937.97
2022-07-26T09:44:48.113Z,99939.66
2022-07-26T09:46:03.266Z,99950.75
2022-07-26T09:47:05.060Z,99944.19
2022-07-26T09:48:11.400Z,99950.81
2022-07-26T09:49:21.540Z,99944.59
2022-07-26T09:50:26.047Z,99937.00
2022-07-26T09:51:39.961Z,99947.91
2022-07-26T09:53:03.274Z,99939.09
2022-07-26T09:54:05.072Z,99941.84
2022-07-26T09:55:08.540Z,99940.25
2022-07-26T09:56:10.566Z,99944.63
2022-07-26T09:57:14.613Z,99942.28
2022-07-26T09:58:17.535Z,99933.34
2022-07-26T09:59:21.743Z,99942.31
2022-07-26T10:00:25.731Z,99943.38
2022-07-26T10:01:27.466Z,99946.53
2022-07-26T10:02:29.168Z,99941.72
2022-07-26T10:03:31.945Z,99942.69
2022-07-26T10:04:33.540Z,99940.59
2022-07-26T10:05:36.347Z,99943.44
2022-07-26T10:06:38.003Z,99937.00
2022-07-26T10:07:39.767Z,99946.28
2022-07-26T10:08:42.476Z,99940.47
2022-07-26T10:09:54.493Z,99935.88
2022-07-26T10:11:03.980Z,99943.59
2022-07-26T10:12:08.809Z,99939.22
2022-07-26T10:13:10.848Z,99938.75
2022-07-26T10:14:47.397Z,99937.06
2022-07-26T10:15:50.742Z,99930.50
2022-07-26T10:16:52.437Z,99944.97
2022-07-26T10:17:55.038Z,99940.31
2022-07-26T10:18:57.867Z,99946.88
2022-07-26T10:20:04.445Z,99942.31
2022-07-26T10:21:21.095Z,99939.75
2022-07-26T10:22:30.241Z,99936.88
2022-07-26T10:23:41.483Z,99946.28
2022-07-26T10:24:43.083Z,99940.97
2022-07-26T10:25:46.575Z,99942.22
2022-07-26T10:26:48.395Z,99945.38
2022-07-26T10:27:49.927Z,99948.34
2022-07-26T10:28:51.570Z,99955.53
2022-07-26T10:30:22.636Z,99943.94
2022-07-26T10:31:29.288Z,99946.44
2022-07-26T10:32:32.917Z,99941.50
2022-07-26T10:33:45.100Z,99951.91
2022-07-26T10:34:47.513Z,99950.41
2022-07-26T10:35:49.169Z,99957.72
2022-07-26T10:37:01.843Z,99934.63
2022-07-26T10:38:06.406Z,99943.31
2022-07-26T10:39:16.116Z,99941.66
2022-07-26T10:40:21.122Z,99948.72
2022-07-26T10:41:51.633Z,99928.72
2022-07-26T10:43:30.120Z,99935.31
2022-07-26T10:44:32.205Z,99935.00
2022-07-26T10:45:33.795Z,99947.84
2022-07-26T10:46:35.425Z,99937.91
2022-07-26T10:47:37.162Z,99954.75
2022-07-26T10:49:03.822Z,99931.53
2022-07-26T10:50:07.936Z,99949.88
2022-07-26T10:51:26.608Z,99946.63
2022-07-26T10:52:30.525Z,99957.09
2022-07-26T10:53:32.822Z,99945.97
2022-07-26T10:54:59.332Z,99952.56
2022-07-26T10:56:02.129Z,99953.25
2022-07-26T10:57:03.805Z,99947.13
2022-07-26T10:58:05.416Z,99947.13
2022-07-26T10:59:07.655Z,99947.16
2022-07-26T11:00:11.303Z,99941.75
2022-07-26T11:01:12.980Z,99939.97
2022-07-26T11:02:19.427Z,99949.25
2022-07-26T11:03:21.371Z,99950.53
2022-07-26T11:04:24.858Z,99958.94
2022-07-26T11:05:32.477Z,99952.22
2022-07-26T11:06:34.158Z,99941.63
2022-07-26T11:07:47.550Z,99954.31
2022-07-26T11:08:49.316Z,99947.00
2022-07-26T11:09:57.909Z,99948.63
2022-07-26T11:10:59.753Z,99922.53
2022-07-26T11:12:21.722Z,99933.88
2022-07-26T11:13:26.131Z,99926.00
2022-07-26T11:14:27.720Z,99928.66
2022-07-26T11:15:29.726Z,99930.94
2022-07-26T11:16:39.305Z,99930.06
2022-07-26T11:17:40.878Z,99937.19
2022-07-26T11:18:42.556Z,99933.13
2022-07-26T11:19:44.158Z,99930.97
2022-07-26T11:20:48.679Z,99928.59
2022-07-26T11:21:58.855Z,99915.56
2022-07-26T11:23:00.509Z,99919.13
2022-07-26T11:24:04.022Z,99922.94
2022-07-26T11:25:06.043Z,99924.69
2022-07-26T11:26:19.324Z,99917.00
2022-07-26T11:27:20.977Z,99919.06
2022-07-26T11:28:22.553Z,99930.38
2022-07-26T11:29:38.736Z,99916.50
2022-07-26T11:30:59.413Z,99917.41
2022-07-26T11:32:14.597Z,99909.06
2022-07-26T11:33:18.803Z,99919.72
2022-07-26T11:34:25.973Z,99907.34
2022-07-26T11:35:30.044Z,99909.63
2022-07-26T11:36:36.067Z,99908.53
2022-07-26T11:37:37.659Z,99908.03
2022-07-26T11:38:48.403Z,99914.91
2022-07-26T11:39:49.991Z,99908.78
2022-07-26T11:40:51.626Z,99903.97
2022-07-26T11:41:58.537Z,99910.13
2022-07-26T11:43:00.199Z,99909.41
2022-07-26T11:44:03.837Z,99914.88
2022-07-26T11:45:10.119Z,99912.16
2022-07-26T11:46:11.941Z,99915.44
2022-07-26T11:47:15.067Z,99914.38
2022-07-26T11:48:16.664Z,99905.41
2022-07-26T11:49:41.576Z,99901.06
2022-07-26T11:50:46.987Z,99908.22
2022-07-26T11:51:54.530Z,99910.09
2022-07-26T11:52:56.442Z,99914.44
2022-07-26T11:53:59.779Z,99919.09
2022-07-26T11:55:01.385Z,99911.69
2022-07-26T11:56:17.296Z,99879.34
2022-07-26T11:57:19.515Z,99896.50
2022-07-26T11:58:21.173Z,99896.84
2022-07-26T11:59:25.622Z,99903.16
2022-07-26T12:00:27.419Z,99909.00
2022-07-26T12:01:29.324Z,99908.31
2022-07-26T12:02:31.159Z,99905.63
2022-07-26T12:03:40.240Z,99895.69
2022-07-26T12:04:43.618Z,99906.59
2022-07-26T12:06:02.454Z,99902.19
2022-07-26T12:07:10.542Z,99896.50
2022-07-26T12:08:12.194Z,99898.22
2022-07-26T12:09:28.645Z,99900.44
2022-07-26T12:10:30.577Z,99887.22
2022-07-26T12:11:41.830Z,99893.78
2022-07-26T12:12:43.552Z,99896.22
2022-07-26T12:14:01.460Z,99902.09
2022-07-26T12:15:05.862Z,99891.81
2022-07-26T12:16:08.871Z,99899.38
2022-07-26T12:17:19.487Z,99901.75
2022-07-26T12:18:26.340Z,99899.91
2022-07-26T12:19:29.838Z,99894.78
2022-07-26T12:20:31.486Z,99890.69
2022-07-26T12:21:47.177Z,99901.53
2022-07-26T12:22:57.475Z,99904.44
2022-07-26T12:23:59.148Z,99897.09
2022-07-26T12:25:02.070Z,99887.22
2022-07-26T12:26:23.882Z,99852.50
2022-07-26T12:27:26.426Z,99891.22
2022-07-26T12:28:41.367Z,99898.97